Time;durP1;ratioP1;P1;durP2;ratioP2;P2;SDS_P1;SDS_P2;PMS_P1;PMS_P2;Temp;Humidity;BMP_temperature;BMP_pressure;BME280_temperature;BME280_humidity;BME280_pressure;Samples;Min_cycle;Max_cycle;Signal;HPM_P1;HPM_P2
2024/02/08 00:00:39;;;;;;;2.88;1.80;;;7.50;99.90;;;;;;5056537;28;20032;-38
2024/02/08 00:03:08;;;;;;;2.15;1.75;;;7.50;99.90;;;;;;5047766;28;20471;-40
2024/02/08 00:05:37;;;;;;;1.85;1.55;;;7.50;99.90;;;;;;5049917;28;20379;-41
2024/02/08 00:08:03;;;;;;;;;;;7.50;99.90;;;;;;5047369;28;20028;-37
2024/02/08 00:10:28;;;;;;;3.47;2.30;;;7.50;99.90;;;;;;5050646;28;19908;-41
2024/02/08 00:12:54;;;;;;;2.78;1.70;;;7.50;99.90;;;;;;5024047;28;20392;-40
2024/02/08 00:15:20;;;;;;;2.45;1.55;;;7.50;99.90;;;;;;5047188;28;20162;-40
2024/02/08 00:17:49;;;;;;;2.25;1.40;;;7.50;99.90;;;;;;5045620;28;20025;-41
2024/02/08 00:20:15;;;;;;;3.40;1.80;;;7.50;99.90;;;;;;5053300;28;20123;-40
2024/02/08 00:22:46;;;;;;;2.80;1.80;;;7.50;99.90;;;;;;5050548;28;20164;-39
2024/02/08 00:25:12;;;;;;;4.25;2.17;;;7.50;99.90;;;;;;5045585;28;20036;-40
2024/02/08 00:27:38;;;;;;;2.17;1.92;;;7.50;99.90;;;;;;5045565;28;20473;-41
2024/02/08 00:30:04;;;;;;;2.30;1.70;;;7.50;99.90;;;;;;5044214;28;20033;-42
2024/02/08 00:32:30;;;;;;;2.03;1.83;;;7.50;99.90;;;;;;5036989;28;21466;-39
2024/02/08 00:34:56;;;;;;;2.80;1.98;;;7.50;99.90;;;;;;5043081;28;20517;-38
2024/02/08 00:37:22;;;;;;;2.03;1.50;;;7.50;99.90;;;;;;5042819;28;20138;-40
2024/02/08 00:39:47;;;;;;;1.83;1.50;;;7.60;99.90;;;;;;5040012;28;20028;-34
2024/02/08 00:42:13;;;;;;;2.00;1.55;;;7.60;99.90;;;;;;5041602;28;20033;-32
2024/02/08 00:44:42;;;;;;;3.40;1.60;;;7.60;99.90;;;;;;5046254;28;20025;-33
2024/02/08 00:47:11;;;;;;;1.63;1.52;;;7.60;99.90;;;;;;5027703;28;20037;-32
2024/02/08 00:49:39;;;;;;;3.45;1.58;;;7.60;99.90;;;;;;5022386;28;20060;-32
2024/02/08 00:52:07;;;;;;;1.25;1.15;;;7.60;99.90;;;;;;5045753;28;20029;-32
2024/02/08 00:54:35;;;;;;;1.75;1.30;;;7.60;99.90;;;;;;5037892;28;20513;-36
2024/02/08 00:57:01;;;;;;;1.70;1.60;;;7.60;99.90;;;;;;5039777;28;20447;-33
2024/02/08 00:59:27;;;;;;;2.60;1.50;;;7.60;99.90;;;;;;5042301;28;20044;-36
2024/02/08 01:01:53;;;;;;;1.90;1.30;;;7.60;99.90;;;;;;5039892;28;20029;-37
2024/02/08 01:04:21;;;;;;;1.40;1.30;;;7.60;99.90;;;;;;5041910;28;20265;-33
2024/02/08 01:06:47;;;;;;;2.17;1.35;;;7.60;99.90;;;;;;5040380;28;20032;-32
2024/02/08 01:09:13;;;;;;;2.33;1.40;;;7.60;99.90;;;;;;5022597;28;20029;-33
2024/02/08 01:11:39;;;;;;;1.73;1.02;;;7.60;99.90;;;;;;5042365;28;20039;-32
2024/02/08 01:14:04;;;;;;;1.38;1.27;;;7.70;99.90;;;;;;5021126;28;20033;-35
2024/02/08 01:16:31;;;;;;;1.48;1.38;;;7.70;99.90;;;;;;5041857;28;20044;-32
2024/02/08 01:18:57;;;;;;;1.30;1.20;;;7.70;99.90;;;;;;5041357;28;20108;-35
2024/02/08 01:21:23;;;;;;;3.08;1.30;;;7.70;99.90;;;;;;5039284;28;20033;-37
2024/02/08 01:23:49;;;;;;;3.08;1.42;;;7.70;99.90;;;;;;5043536;28;20033;-32
2024/02/08 01:26:15;;;;;;;1.98;1.20;;;7.80;99.90;;;;;;5039634;28;20028;-32
2024/02/08 01:28:41;;;;;;;0.85;0.85;;;7.70;99.90;;;;;;5041892;28;20037;-34
2024/02/08 01:31:07;;;;;;;1.30;1.20;;;7.80;99.90;;;;;;5041902;28;20040;-41
2024/02/08 01:33:37;;;;;;;1.88;1.20;;;7.70;99.90;;;;;;5039669;28;22244;-41
2024/02/08 01:36:03;;;;;;;1.17;1.08;;;7.80;99.90;;;;;;5005382;28;1100470;-41
2024/02/08 01:38:29;;;;;;;1.13;1.13;;;7.70;99.90;;;;;;5047062;28;20039;-40
2024/02/08 01:40:55;;;;;;;1.42;1.38;;;7.80;99.90;;;;;;5044695;28;20651;-42
2024/02/08 01:43:20;;;;;;;1.65;1.48;;;7.80;99.90;;;;;;5047188;28;20082;-41
2024/02/08 01:45:46;;;;;;;1.45;1.35;;;7.80;99.90;;;;;;5024290;28;20112;-40
2024/02/08 01:48:15;;;;;;;2.90;1.38;;;7.80;99.90;;;;;;5038332;28;20083;-42
2024/02/08 01:50:42;;;;;;;1.67;1.02;;;7.80;99.90;;;;;;5042488;28;20735;-41
2024/02/08 01:53:13;;;;;;;1.48;1.30;;;7.80;99.90;;;;;;5037688;28;20482;-39
2024/02/08 01:55:40;;;;;;;1.27;1.17;;;7.80;99.90;;;;;;5040981;28;20060;-40
2024/02/08 01:58:07;;;;;;;1.48;1.38;;;7.80;99.90;;;;;;5042027;28;20487;-39
2024/02/08 02:00:37;;;;;;;1.42;1.25;;;7.80;99.90;;;;;;5038889;28;20029;-40
2024/02/08 02:03:11;;;;;;;1.20;1.10;;;7.90;99.90;;;;;;5041677;28;20112;-39
2024/02/08 02:05:42;;;;;;;1.25;1.15;;;7.80;99.90;;;;;;5041657;28;20451;-40
2024/02/08 02:08:21;;;;;;;1.48;1.23;;;7.80;99.90;;;;;;5044456;28;20137;-37
2024/02/08 02:11:19;;;;;;;1.63;1.30;;;7.80;99.90;;;;;;5042319;28;20025;-41
2024/02/08 02:13:47;;;;;;;1.23;1.15;;;7.80;99.90;;;;;;5043047;28;20485;-37
2024/02/08 02:16:13;;;;;;;1.33;1.00;;;7.80;99.90;;;;;;5041144;28;20075;-40
2024/02/08 02:18:39;;;;;;;1.83;1.60;;;7.80;99.90;;;;;;5042835;28;20274;-41
2024/02/08 02:21:05;;;;;;;1.60;1.25;;;7.70;99.90;;;;;;5039756;28;20029;-40
2024/02/08 02:23:31;;;;;;;2.13;1.30;;;7.70;99.90;;;;;;5039014;28;20059;-41
2024/02/08 02:25:58;;;;;;;1.67;1.38;;;7.70;99.90;;;;;;5051766;28;20040;-39
2024/02/08 02:28:25;;;;;;;1.10;1.10;;;7.80;99.90;;;;;;5040900;28;20804;-40
2024/02/08 02:30:51;;;;;;;2.15;1.63;;;7.80;99.90;;;;;;5036279;28;20029;-39
2024/02/08 02:33:19;;;;;;;0.93;0.93;;;7.80;99.90;;;;;;5042085;28;20487;-38
2024/02/08 02:35:49;;;;;;;1.25;1.15;;;7.70;99.90;;;;;;5037288;28;20075;-38
2024/02/08 02:38:17;;;;;;;2.13;1.40;;;7.80;99.90;;;;;;5039719;28;20060;-40
2024/02/08 02:40:44;;;;;;;;;;;7.70;99.90;;;;;;5040842;28;20025;-42
2024/02/08 02:43:09;;;;;;;1.83;1.42;;;7.70;99.90;;;;;;5040856;28;19909;-42
2024/02/08 02:45:38;;;;;;;1.58;1.48;;;7.70;99.90;;;;;;5043597;28;20025;-41
2024/02/08 02:48:04;;;;;;;3.17;1.30;;;7.80;99.90;;;;;;5038595;28;20030;-39
2024/02/08 02:50:32;;;;;;;1.40;1.30;;;7.80;99.90;;;;;;5039410;28;20338;-39
2024/02/08 02:52:58;;;;;;;0.93;0.93;;;7.80;99.90;;;;;;5038977;28;20030;-35
2024/02/08 02:55:23;;;;;;;1.15;1.05;;;7.80;99.90;;;;;;5044852;28;20072;-38
2024/02/08 02:57:49;;;;;;;2.00;1.45;;;7.90;99.90;;;;;;5038717;28;20032;-41
2024/02/08 03:00:21;;;;;;;1.58;1.38;;;7.90;99.90;;;;;;5044249;28;20560;-32
2024/02/08 03:02:51;;;;;;;1.02;1.00;;;7.90;99.90;;;;;;5048421;28;20033;-33
2024/02/08 03:05:20;;;;;;;1.33;0.93;;;7.90;99.90;;;;;;5047492;28;20733;-38
2024/02/08 03:07:55;;;;;;;1.10;1.10;;;7.90;99.90;;;;;;5045302;28;20091;-33
2024/02/08 03:10:22;;;;;;;0.80;0.80;;;7.90;99.90;;;;;;5045087;28;20108;-34
2024/02/08 03:12:49;;;;;;;1.00;1.00;;;7.90;99.90;;;;;;5025298;28;20033;-32
2024/02/08 03:15:16;;;;;;;0.88;0.88;;;7.90;99.90;;;;;;5047541;28;20047;-34
2024/02/08 03:17:43;;;;;;;1.30;1.23;;;7.90;99.90;;;;;;5046044;28;20148;-31
2024/02/08 03:20:16;;;;;;;1.25;1.15;;;7.90;99.90;;;;;;5043741;28;20033;-35
2024/02/08 03:22:45;;;;;;;1.38;1.30;;;7.90;99.90;;;;;;5041094;28;20037;-33
2024/02/08 03:25:14;;;;;;;1.55;1.20;;;7.90;99.90;;;;;;5059609;28;20415;-33
2024/02/08 03:27:44;;;;;;;0.82;0.82;;;7.90;99.90;;;;;;5027585;28;20079;-33
2024/02/08 03:30:19;;;;;;;1.58;1.20;;;7.90;99.90;;;;;;5052074;28;20029;-33
2024/02/08 03:32:50;;;;;;;1.13;1.10;;;7.90;99.90;;;;;;5037229;28;20211;-32
2024/02/08 03:35:27;;;;;;;2.88;1.38;;;7.90;99.90;;;;;;5047219;28;20123;-32
2024/02/08 03:38:00;;;;;;;3.30;1.25;;;7.90;99.90;;;;;;5041106;28;20380;-33
2024/02/08 03:40:32;;;;;;;0.95;0.95;;;7.90;99.90;;;;;;5033986;28;20033;-33
2024/02/08 03:42:59;;;;;;;1.10;0.90;;;7.90;99.90;;;;;;5046490;28;20017;-35
2024/02/08 03:45:27;;;;;;;1.98;1.35;;;7.90;99.90;;;;;;5049492;28;20056;-34
2024/02/08 03:48:00;;;;;;;1.15;1.05;;;7.90;99.90;;;;;;5051921;28;20025;-36
2024/02/08 03:50:29;;;;;;;1.40;1.30;;;8.00;99.90;;;;;;5026324;28;20025;-33
2024/02/08 03:52:56;;;;;;;1.08;0.98;;;8.00;99.90;;;;;;5030687;28;20171;-37
2024/02/08 03:55:26;;;;;;;1.30;1.20;;;8.00;99.90;;;;;;5032614;28;20317;-32
2024/02/08 03:58:00;;;;;;;1.40;1.30;;;8.10;99.90;;;;;;5045745;28;20036;-36
2024/02/08 04:00:29;;;;;;;1.30;1.20;;;8.00;99.90;;;;;;5041694;28;20029;-37
2024/02/08 04:03:03;;;;;;;1.00;1.00;;;8.10;99.90;;;;;;5027182;28;20032;-35
2024/02/08 04:08:32;;;;;;;1.92;1.20;;;8.00;99.90;;;;;;5040348;28;20124;-32
2024/02/08 04:54:36;;;;;;;1.42;1.10;;;7.90;99.90;;;;;;5045747;28;20091;-41
2024/02/08 04:57:03;;;;;;;1.20;1.10;;;7.90;99.90;;;;;;5047206;28;20029;-42
2024/02/08 04:59:29;;;;;;;1.08;1.08;;;7.90;99.90;;;;;;5047709;28;20036;-39
2024/02/08 05:01:55;;;;;;;1.13;1.10;;;7.90;99.90;;;;;;5046443;28;20059;-40
2024/02/08 05:04:21;;;;;;;0.98;0.98;;;7.90;99.90;;;;;;5042764;28;20087;-40
2024/02/08 05:06:47;;;;;;;0.95;0.95;;;7.90;99.90;;;;;;5030126;28;20065;-41
2024/02/08 05:09:19;;;;;;;1.20;1.20;;;7.80;99.90;;;;;;5045968;28;20029;-41
2024/02/08 05:11:47;;;;;;;1.42;1.10;;;7.90;99.90;;;;;;5041957;28;20012;-39
2024/02/08 05:14:13;;;;;;;2.28;0.98;;;7.90;99.90;;;;;;5048224;28;20043;-38
2024/02/08 05:16:39;;;;;;;1.98;1.10;;;7.90;99.90;;;;;;5040182;28;20033;-39
2024/02/08 05:19:05;;;;;;;1.48;1.33;;;7.90;99.90;;;;;;5049639;28;20108;-40
2024/02/08 05:21:31;;;;;;;1.70;1.20;;;7.90;99.90;;;;;;5039831;28;20105;-34
2024/02/08 05:23:58;;;;;;;1.40;1.27;;;7.90;99.90;;;;;;5047557;28;20079;-33
2024/02/08 05:26:31;;;;;;;0.90;0.90;;;7.90;99.90;;;;;;5041783;28;20053;-33
2024/02/08 05:28:57;;;;;;;1.17;1.08;;;7.90;99.90;;;;;;5043661;28;20021;-36
2024/02/08 05:31:27;;;;;;;1.00;1.00;;;8.00;99.90;;;;;;5023905;28;20030;-32
2024/02/08 05:33:57;;;;;;;4.72;1.20;;;8.00;99.90;;;;;;5030628;28;20025;-35
2024/02/08 05:36:24;;;;;;;1.38;1.00;;;8.00;99.90;;;;;;5024958;28;20030;-37
2024/02/08 05:38:56;;;;;;;1.02;1.00;;;8.00;99.90;;;;;;5029386;28;20637;-34
2024/02/08 05:41:22;;;;;;;1.10;1.10;;;8.00;99.90;;;;;;5038198;28;20064;-33
2024/02/08 05:43:51;;;;;;;1.83;1.23;;;8.00;99.90;;;;;;5038286;28;20029;-33
2024/02/08 05:46:25;;;;;;;1.20;1.10;;;8.10;99.90;;;;;;5045203;28;20025;-33
2024/02/08 05:49:11;;;;;;;2.47;1.30;;;8.10;99.90;;;;;;5041175;28;20045;-35
2024/02/08 05:51:38;;;;;;;1.05;1.05;;;8.10;99.90;;;;;;5042120;28;20055;-34
2024/02/08 05:54:08;;;;;;;0.98;0.98;;;8.10;99.90;;;;;;5030067;28;20429;-35
2024/02/08 05:56:39;;;;;;;0.95;0.95;;;8.10;99.90;;;;;;5044708;28;20033;-33
2024/02/08 05:59:08;;;;;;;1.55;1.40;;;8.10;99.90;;;;;;5023080;28;20111;-34
2024/02/08 06:01:54;;;;;;;1.08;1.08;;;8.10;99.90;;;;;;5040337;28;20534;-35
2024/02/08 06:04:34;;;;;;;3.40;1.25;;;8.10;99.90;;;;;;5040786;28;20064;-34
2024/02/08 06:07:07;;;;;;;1.08;1.00;;;8.10;99.90;;;;;;5043630;28;20028;-35
2024/02/08 06:12:20;;;;;;;1.42;0.98;;;8.20;99.90;;;;;;5043868;28;20024;-43
2024/02/08 06:14:47;;;;;;;1.42;1.23;;;8.20;99.90;;;;;;5042531;28;20081;-39
2024/02/08 06:17:23;;;;;;;0.88;0.88;;;8.20;99.90;;;;;;5039436;28;20025;-37
2024/02/08 06:19:52;;;;;;;1.30;1.20;;;8.10;99.90;;;;;;5022556;28;20678;-38
2024/02/08 06:22:22;;;;;;;1.00;1.00;;;8.20;99.90;;;;;;5043732;28;20029;-42
2024/02/08 06:25:26;;;;;;;1.35;1.25;;;8.20;99.90;;;;;;5023361;28;20033;-42
2024/02/08 06:27:56;;;;;;;1.23;1.10;;;8.20;99.90;;;;;;5037583;28;20039;-38
2024/02/08 06:30:25;;;;;;;2.58;1.40;;;8.20;99.90;;;;;;5040842;28;20021;-41
2024/02/08 06:33:07;;;;;;;1.42;1.30;;;8.20;99.90;;;;;;5040695;28;20079;-38
2024/02/08 06:35:36;;;;;;;1.42;1.30;;;8.30;99.90;;;;;;5056363;28;20133;-40
2024/02/08 06:38:08;;;;;;;1.48;1.10;;;8.30;99.90;;;;;;5038131;28;20037;-39
2024/02/08 06:40:37;;;;;;;2.65;1.40;;;8.30;99.90;;;;;;5041716;28;20069;-41
2024/02/08 07:37:25;;;;;;;0.80;0.80;;;8.50;99.90;;;;;;5037652;28;20049;-40
2024/02/08 07:40:00;;;;;;;0.73;0.73;;;8.50;99.90;;;;;;5041799;28;20485;-36
2024/02/08 07:42:29;;;;;;;0.80;0.80;;;8.50;99.90;;;;;;5047332;28;20028;-37
2024/02/08 07:45:04;;;;;;;0.63;0.63;;;8.50;99.90;;;;;;5043079;28;20033;-33
2024/02/08 07:47:33;;;;;;;0.80;0.80;;;8.50;99.90;;;;;;5045989;28;20025;-35
2024/02/08 07:50:09;;;;;;;0.70;0.70;;;8.60;99.90;;;;;;5022587;28;20029;-34
2024/02/08 07:52:57;;;;;;;0.70;0.70;;;8.60;99.90;;;;;;5048101;28;20040;-34
2024/02/08 07:57:59;;;;;;;0.80;0.80;;;8.60;99.90;;;;;;5043989;28;20112;-34
2024/02/08 08:03:07;;;;;;;1.95;1.00;;;8.70;99.90;;;;;;5024127;28;20026;-34
2024/02/08 08:05:41;;;;;;;0.95;0.80;;;8.70;99.90;;;;;;5023050;28;20122;-33
2024/02/08 08:08:31;;;;;;;0.80;0.80;;;8.70;99.90;;;;;;5010605;28;20029;-32
2024/02/08 08:11:02;;;;;;;0.85;0.65;;;8.80;99.90;;;;;;5008857;28;20630;-38
2024/02/08 08:13:52;;;;;;;5.32;1.00;;;8.80;99.90;;;;;;5026429;28;20048;-32
2024/02/08 08:18:57;;;;;;;;;;;9.00;99.90;;;;;;5030684;28;20025;-31
2024/02/08 08:21:25;;;;;;;0.75;0.75;;;9.20;99.90;;;;;;5027613;28;19913;-34
2024/02/08 08:23:59;;;;;;;;;;;9.30;99.90;;;;;;5020772;28;20038;-34
2024/02/08 08:26:40;;;;;;;0.70;0.70;;;9.30;99.90;;;;;;5024748;28;20003;-34
2024/02/08 08:29:16;;;;;;;0.45;0.45;;;9.30;99.90;;;;;;5016403;28;20026;-33
2024/02/08 08:31:51;;;;;;;0.90;0.90;;;9.30;99.90;;;;;;5031035;28;20030;-31
2024/02/08 08:37:03;;;;;;;0.63;0.63;;;9.20;99.90;;;;;;5043788;28;20479;-34
2024/02/08 08:39:46;;;;;;;0.80;0.80;;;9.20;99.90;;;;;;5042286;28;20036;-34
2024/02/08 08:42:23;;;;;;;1.00;0.80;;;9.20;99.90;;;;;;5039190;28;20120;-33
2024/02/08 08:44:57;;;;;;;0.85;0.85;;;9.30;99.90;;;;;;5024155;28;20037;-33
2024/02/08 08:47:28;;;;;;;0.80;0.80;;;9.40;99.90;;;;;;5036703;28;20026;-33
2024/02/08 08:50:17;;;;;;;0.70;0.70;;;9.50;99.90;;;;;;5028406;28;20033;-36
2024/02/08 08:52:52;;;;;;;0.63;0.63;;;9.50;99.90;;;;;;5034244;28;20025;-32
2024/02/08 08:55:20;;;;;;;0.60;0.60;;;9.50;99.90;;;;;;5020892;28;20380;-33
2024/02/08 08:58:00;;;;;;;0.90;0.90;;;9.50;99.90;;;;;;5026340;28;20450;-33
2024/02/08 09:00:32;;;;;;;0.50;0.50;;;9.50;99.90;;;;;;5027443;28;20031;-35
2024/02/08 09:03:25;;;;;;;0.70;0.70;;;9.50;99.90;;;;;;5042895;28;20063;-36
2024/02/08 09:06:02;;;;;;;13.52;2.67;;;9.50;99.90;;;;;;5046176;28;20028;-35
2024/02/08 09:08:41;;;;;;;0.77;0.77;;;9.50;99.90;;;;;;5024734;28;20022;-33
2024/02/08 09:11:12;;;;;;;1.20;0.55;;;9.50;99.90;;;;;;5041107;28;20033;-38
2024/02/08 09:13:42;;;;;;;0.85;0.80;;;9.60;99.90;;;;;;5048621;28;20475;-34
2024/02/08 09:21:32;;;;;;;0.50;0.50;;;9.70;99.90;;;;;;5037047;28;20033;-34
2024/02/08 09:24:06;;;;;;;0.98;0.90;;;9.70;99.90;;;;;;5016974;28;20057;-37
2024/02/08 09:26:48;;;;;;;1.85;0.60;;;9.70;99.90;;;;;;5027533;28;20028;-34
2024/02/08 09:29:15;;;;;;;0.82;0.82;;;9.70;99.90;;;;;;5042214;28;20075;-33
2024/02/08 09:31:46;;;;;;;1.50;0.80;;;9.70;99.90;;;;;;5037982;28;20126;-32
2024/02/08 09:34:16;;;;;;;1.05;0.80;;;9.60;99.90;;;;;;5050869;28;20208;-33
2024/02/08 09:36:44;;;;;;;1.00;1.00;;;9.70;99.90;;;;;;5033377;28;20029;-33
2024/02/08 09:39:16;;;;;;;1.48;0.98;;;9.70;99.90;;;;;;5008665;28;20069;-32
2024/02/08 09:41:45;;;;;;;0.95;0.82;;;9.70;99.90;;;;;;5026389;28;20043;-31
2024/02/08 09:44:14;;;;;;;1.13;0.88;;;9.70;99.90;;;;;;5011883;28;20398;-32
2024/02/08 09:49:13;;;;;;;0.68;0.68;;;9.70;99.90;;;;;;5021266;28;20660;-33
2024/02/08 09:51:52;;;;;;;1.35;0.88;;;9.70;99.90;;;;;;5020783;28;20076;-31
2024/02/08 09:54:30;;;;;;;0.68;0.68;;;9.70;99.90;;;;;;5021219;28;20030;-32
2024/02/08 09:57:23;;;;;;;0.82;0.82;;;9.80;99.90;;;;;;5008826;28;20041;-32
2024/02/08 10:00:07;;;;;;;0.52;0.52;;;10.00;99.90;;;;;;5018345;28;20390;-32
2024/02/08 10:02:35;;;;;;;2.08;0.98;;;10.10;99.90;;;;;;5026567;28;20695;-32
2024/02/08 10:05:48;;;;;;;0.60;0.60;;;10.30;99.90;;;;;;5023192;28;20041;-35
2024/02/08 10:08:08;;;;;;;0.52;0.52;;;10.40;99.90;;;;;;5019629;28;20046;-32
2024/02/08 10:10:56;;;;;;;1.08;0.63;;;10.50;99.90;;;;;;5024959;28;20044;-31
2024/02/08 10:13:40;;;;;;;0.60;0.60;;;10.60;99.90;;;;;;5024366;28;20018;-34
2024/02/08 10:16:12;;;;;;;1.90;0.80;;;10.60;99.90;;;;;;5021036;28;20059;-33
2024/02/08 10:18:38;;;;;;;0.70;0.70;;;10.60;99.90;;;;;;5028939;28;20482;-31
2024/02/08 10:21:12;;;;;;;0.73;0.70;;;10.60;99.90;;;;;;5021780;28;20032;-32
2024/02/08 10:23:59;;;;;;;0.75;0.73;;;10.70;99.90;;;;;;5025822;28;20033;-32
2024/02/08 10:26:27;;;;;;;0.40;0.40;;;10.80;99.90;;;;;;5024549;28;20043;-34
2024/02/08 10:28:55;;;;;;;0.50;0.50;;;10.80;99.90;;;;;;5019581;28;20028;-36
2024/02/08 10:31:28;;;;;;;0.60;0.60;;;10.80;99.90;;;;;;5016938;28;20116;-32
2024/02/08 10:34:08;;;;;;;0.50;0.50;;;10.80;99.90;;;;;;5019904;28;20030;-32
2024/02/08 10:36:44;;;;;;;0.73;0.73;;;10.90;99.90;;;;;;5028706;28;20048;-35
2024/02/08 10:39:26;;;;;;;0.50;0.50;;;10.90;99.90;;;;;;5007753;28;20557;-31
2024/02/08 10:41:59;;;;;;;0.50;0.50;;;11.00;99.90;;;;;;5017260;28;20030;-36
2024/02/08 10:44:35;;;;;;;0.65;0.60;;;11.00;99.90;;;;;;5008890;28;20022;-34
2024/02/08 10:47:09;;;;;;;0.73;0.73;;;11.00;99.90;;;;;;5022194;28;20118;-34
2024/02/08 10:49:42;;;;;;;0.60;0.60;;;11.00;99.90;;;;;;5022280;28;20115;-35
2024/02/08 10:52:12;;;;;;;0.35;0.35;;;11.10;99.90;;;;;;5008093;28;20061;-37
2024/02/08 10:54:48;;;;;;;0.60;0.60;;;11.00;99.90;;;;;;5025438;28;20155;-39
2024/02/08 10:57:39;;;;;;;0.57;0.57;;;11.10;99.90;;;;;;5023221;28;20033;-40
2024/02/08 11:03:00;;;;;;;0.55;0.55;;;11.20;99.90;;;;;;5026357;28;20057;-38
2024/02/08 11:07:53;;;;;;;0.57;0.57;;;11.20;99.90;;;;;;5032223;28;20017;-39
2024/02/08 11:10:31;;;;;;;0.70;0.70;;;11.20;99.90;;;;;;5007710;28;20052;-32
2024/02/08 11:13:10;;;;;;;0.68;0.68;;;11.20;99.90;;;;;;5022368;28;20045;-36
2024/02/08 11:15:39;;;;;;;;;;;11.20;99.90;;;;;;5028727;28;20018;-32
2024/02/08 11:18:33;;;;;;;0.40;0.40;;;11.20;99.90;;;;;;5024439;28;19921;-33
2024/02/08 11:21:12;;;;;;;1.45;0.52;;;11.20;99.90;;;;;;5023848;28;20087;-33
2024/02/08 11:23:45;;;;;;;0.57;0.57;;;11.30;99.90;;;;;;5012771;28;20071;-33
2024/02/08 11:26:18;;;;;;;1.55;0.45;;;11.40;99.90;;;;;;5004696;28;20025;-33
2024/02/08 11:28:44;;;;;;;0.40;0.40;;;11.40;99.90;;;;;;5015380;28;20018;-35
2024/02/08 11:31:33;;;;;;;1.23;0.60;;;11.40;99.90;;;;;;5004064;28;20041;-33
2024/02/08 11:34:13;;;;;;;0.40;0.40;;;11.40;99.90;;;;;;5023412;28;20038;-36
2024/02/08 11:36:42;;;;;;;0.80;0.80;;;11.40;99.90;;;;;;5007307;28;20029;-33
2024/02/08 11:39:27;;;;;;;0.70;0.70;;;11.40;99.90;;;;;;5022056;28;20077;-37
2024/02/08 11:42:00;;;;;;;0.73;0.73;;;11.30;99.90;;;;;;5009204;28;20034;-33
2024/02/08 11:44:35;;;;;;;2.13;0.80;;;11.20;99.90;;;;;;4995260;28;20427;-31
2024/02/08 11:47:19;;;;;;;0.80;0.80;;;11.20;99.90;;;;;;5021866;28;20022;-33
2024/02/08 11:49:52;;;;;;;0.73;0.73;;;11.20;99.90;;;;;;5028528;28;20044;-34
2024/02/08 11:52:19;;;;;;;0.70;0.70;;;11.10;99.90;;;;;;5009858;28;20489;-35
2024/02/08 11:55:13;;;;;;;0.70;0.70;;;11.10;99.90;;;;;;5031259;28;20415;-34
2024/02/08 11:57:41;;;;;;;0.77;0.77;;;11.20;99.90;;;;;;5028295;28;20036;-33
2024/02/08 12:00:15;;;;;;;1.48;0.70;;;11.20;99.90;;;;;;5012195;28;20030;-32
2024/02/08 12:02:58;;;;;;;0.80;0.80;;;11.20;99.90;;;;;;5027152;28;20038;-33
2024/02/08 12:05:25;;;;;;;0.80;0.80;;;11.20;99.90;;;;;;5019715;28;20029;-31
2024/02/08 12:07:52;;;;;;;0.73;0.68;;;11.10;99.90;;;;;;5032216;28;20017;-37
2024/02/08 12:10:21;;;;;;;0.80;0.80;;;11.10;99.90;;;;;;5023936;28;20038;-33
2024/02/08 12:12:54;;;;;;;0.65;0.60;;;10.90;99.90;;;;;;5029351;28;20033;-32
2024/02/08 12:15:21;;;;;;;0.60;0.60;;;10.90;99.90;;;;;;5026102;28;20033;-32
2024/02/08 12:18:05;;;;;;;0.82;0.82;;;10.90;99.90;;;;;;5023610;28;20113;-31
2024/02/08 12:20:36;;;;;;;2.00;1.60;;;10.80;99.90;;;;;;5029606;28;20376;-33
2024/02/08 12:23:03;;;;;;;1.48;0.90;;;10.80;99.90;;;;;;5011875;28;20116;-33
2024/02/08 12:25:45;;;;;;;0.60;0.60;;;10.90;99.90;;;;;;5010167;28;20475;-32
2024/02/08 12:28:12;;;;;;;0.70;0.70;;;11.00;99.90;;;;;;5006021;28;20037;-34
2024/02/08 12:30:42;;;;;;;0.80;0.80;;;11.00;99.90;;;;;;5020537;28;20025;-34
2024/02/08 12:33:10;;;;;;;0.98;0.70;;;11.00;99.90;;;;;;5012192;28;20029;-34
2024/02/08 12:35:42;;;;;;;1.10;0.98;;;11.10;99.90;;;;;;5009712;28;20041;-32
2024/02/08 12:38:11;;;;;;;0.75;0.60;;;11.10;99.90;;;;;;5007919;28;20029;-34
2024/02/08 12:40:39;;;;;;;0.65;0.65;;;11.10;99.90;;;;;;5023670;28;20231;-31
2024/02/08 12:43:08;;;;;;;0.70;0.70;;;11.20;99.90;;;;;;5022018;28;20487;-32
2024/02/08 12:45:34;;;;;;;1.58;0.77;;;11.20;99.90;;;;;;5005135;28;20029;-33
2024/02/08 12:48:04;;;;;;;0.90;0.90;;;11.30;99.90;;;;;;5017041;28;20103;-36
2024/02/08 12:50:43;;;;;;;0.80;0.80;;;11.30;99.90;;;;;;5025593;28;20021;-32
2024/02/08 12:53:18;;;;;;;2.20;0.80;;;11.40;99.90;;;;;;5019620;28;20033;-37
2024/02/08 12:55:46;;;;;;;1.15;0.88;;;11.40;99.90;;;;;;5021597;28;20049;-34
2024/02/08 12:58:18;;;;;;;0.50;0.50;;;11.40;99.90;;;;;;5011846;28;20135;-32
2024/02/08 13:01:04;;;;;;;0.85;0.85;;;11.40;99.90;;;;;;5019806;28;20029;-35
2024/02/08 13:03:36;;;;;;;1.50;0.65;;;11.40;99.90;;;;;;5021527;28;20026;-35
2024/02/08 13:06:04;;;;;;;0.75;0.75;;;11.40;99.90;;;;;;5025663;28;20140;-34
2024/02/08 13:08:33;;;;;;;0.80;0.80;;;11.40;99.90;;;;;;5011401;28;20546;-33
2024/02/08 13:11:01;;;;;;;0.80;0.80;;;11.40;99.90;;;;;;5027800;28;20075;-41
2024/02/08 13:13:27;;;;;;;2.22;0.80;;;11.40;99.90;;;;;;5024216;28;20056;-41
2024/02/08 13:15:58;;;;;;;0.70;0.70;;;11.40;99.90;;;;;;5019210;28;20022;-38
2024/02/08 13:18:31;;;;;;;0.60;0.60;;;11.30;99.90;;;;;;5004416;28;20127;-40
2024/02/08 13:20:57;;;;;;;0.75;0.75;;;11.30;99.90;;;;;;5025376;28;20034;-36
2024/02/08 13:23:27;;;;;;;0.80;0.80;;;11.30;99.90;;;;;;5029046;28;20022;-41
2024/02/08 13:25:56;;;;;;;0.80;0.80;;;11.20;99.90;;;;;;5016302;28;20060;-41
2024/02/08 13:28:23;;;;;;;0.70;0.70;;;11.20;99.90;;;;;;5022597;28;20045;-40
2024/02/08 13:30:52;;;;;;;0.83;0.83;;;11.20;99.90;;;;;;5011399;28;20041;-31
2024/02/08 13:33:18;;;;;;;;;;;11.20;99.90;;;;;;5021719;28;20086;-32
2024/02/08 13:35:43;;;;;;;0.75;0.75;;;11.20;99.90;;;;;;5026439;28;20470;-32
2024/02/08 13:38:11;;;;;;;0.98;0.98;;;11.20;99.90;;;;;;5025475;28;20513;-34
2024/02/08 13:40:42;;;;;;;1.15;0.85;;;11.30;99.90;;;;;;5013685;28;20526;-32
2024/02/08 13:43:10;;;;;;;1.48;0.90;;;11.30;99.90;;;;;;5033457;28;20025;-33
2024/02/08 13:45:37;;;;;;;1.65;0.80;;;11.20;99.90;;;;;;5026545;28;20029;-33
2024/02/08 13:48:05;;;;;;;0.80;0.80;;;11.20;99.90;;;;;;5029144;28;20033;-32
2024/02/08 13:50:33;;;;;;;0.93;0.93;;;11.20;99.90;;;;;;5026427;28;20026;-33
2024/02/08 13:52:59;;;;;;;0.70;0.70;;;11.30;99.90;;;;;;5020228;28;20032;-34
2024/02/08 13:55:31;;;;;;;1.38;0.90;;;11.20;99.90;;;;;;5020196;28;20052;-32
2024/02/08 13:57:59;;;;;;;0.90;0.85;;;11.20;99.90;;;;;;5021526;28;20041;-32
2024/02/08 14:00:30;;;;;;;;;;;11.20;99.90;;;;;;5027188;28;20148;-32
2024/02/08 14:02:56;;;;;;;0.88;0.75;;;11.20;99.90;;;;;;5007511;28;20426;-33
2024/02/08 14:05:23;;;;;;;4.43;1.15;;;11.20;99.90;;;;;;5020043;28;20104;-36
2024/02/08 14:07:52;;;;;;;2.30;1.00;;;11.20;99.90;;;;;;5005164;28;20460;-34
2024/02/08 14:10:31;;;;;;;2.50;1.35;;;11.10;99.90;;;;;;5026262;28;20463;-32
2024/02/08 14:13:06;;;;;;;1.67;1.02;;;11.10;99.90;;;;;;5035623;28;20030;-33
2024/02/08 14:15:32;;;;;;;3.40;1.08;;;11.10;99.90;;;;;;5022804;28;20029;-32
2024/02/08 14:18:11;;;;;;;1.55;1.13;;;11.00;99.90;;;;;;5020248;28;20441;-37
2024/02/08 14:20:47;;;;;;;2.35;1.20;;;10.90;99.90;;;;;;5025724;28;20524;-33
2024/02/08 14:23:14;;;;;;;1.83;1.65;;;10.90;99.90;;;;;;5016402;28;20052;-37
2024/02/08 14:28:25;;;;;;;1.42;1.00;;;10.80;99.90;;;;;;5025345;28;20051;-32
2024/02/08 14:30:51;;;;;;;7.25;1.40;;;10.80;99.90;;;;;;5028814;28;20033;-38
2024/02/08 14:33:19;;;;;;;4.72;1.20;;;10.80;99.90;;;;;;5010862;28;20082;-34
2024/02/08 14:35:47;;;;;;;1.48;1.13;;;10.80;99.90;;;;;;5025260;28;20415;-36
2024/02/08 14:38:14;;;;;;;4.15;1.10;;;10.80;99.90;;;;;;5036575;28;20029;-38
2024/02/08 14:40:40;;;;;;;1.17;1.13;;;10.80;99.90;;;;;;5029535;28;20041;-33
2024/02/08 14:43:06;;;;;;;2.00;1.30;;;10.80;99.90;;;;;;5027396;28;20048;-36
2024/02/08 14:45:36;;;;;;;3.25;1.40;;;10.80;99.90;;;;;;5026352;28;20037;-33
2024/02/08 14:48:10;;;;;;;3.10;1.20;;;10.80;99.90;;;;;;5012883;28;20018;-33
2024/02/08 14:50:49;;;;;;;6.47;1.58;;;10.90;99.90;;;;;;5018452;28;20491;-33
2024/02/08 14:53:16;;;;;;;2.40;1.13;;;10.90;99.90;;;;;;5022658;28;20029;-32
2024/02/08 14:55:45;;;;;;;1.07;0.93;;;10.90;99.90;;;;;;5008293;28;20488;-35
2024/02/08 14:58:33;;;;;;;5.25;1.50;;;10.90;99.90;;;;;;5011252;28;20057;-32
2024/02/08 15:01:09;;;;;;;3.58;1.60;;;10.90;99.90;;;;;;5009182;28;20034;-35
2024/02/08 15:03:44;;;;;;;4.28;1.40;;;10.90;99.90;;;;;;5026146;28;20357;-34
2024/02/08 15:12:00;;;;;;;2.20;1.35;;;10.80;99.90;;;;;;5018016;28;20501;-36
2024/02/08 15:14:36;;;;;;;2.10;1.15;;;10.80;99.90;;;;;;5018874;28;20029;-32
2024/02/08 15:17:08;;;;;;;6.82;1.75;;;10.80;99.90;;;;;;5025201;28;20033;-32
2024/02/08 15:19:46;;;;;;;6.15;1.63;;;10.80;99.90;;;;;;5025882;28;20475;-31
2024/02/08 15:22:46;;;;;;;5.20;1.55;;;10.80;99.90;;;;;;5025574;28;20121;-33
2024/02/08 15:25:05;;;;;;;5.18;1.30;;;10.80;99.90;;;;;;5028175;28;20083;-32
2024/02/08 15:27:47;;;;;;;1.45;0.98;;;10.80;99.90;;;;;;5029849;28;20029;-34
2024/02/08 15:30:16;;;;;;;6.10;1.60;;;10.80;99.90;;;;;;5030210;28;20514;-32
2024/02/08 15:32:58;;;;;;;4.55;1.67;;;10.80;99.90;;;;;;5007262;28;20041;-34